createdAt,value
2019-02-18T00:01:16.951Z,50.84
2019-02-18T00:03:45.448Z,50.61
2019-02-18T00:06:14.141Z,50.64
2019-02-18T00:08:42.597Z,51.14
2019-02-18T00:11:14.339Z,51.23
2019-02-18T00:13:43.011Z,51.79
2019-02-18T00:16:11.799Z,52.35
2019-02-18T00:18:40.244Z,52.55
2019-02-18T00:21:09.032Z,52.70
2019-02-18T00:23:38.203Z,52.88
2019-02-18T00:26:06.958Z,53.14
2019-02-18T00:28:37.008Z,52.87
2019-02-18T00:31:05.606Z,53.17
2019-02-18T00:33:34.061Z,52.60
2019-02-18T00:36:02.534Z,52.74
2019-02-18T00:38:31.237Z,52.40
2019-02-18T00:40:59.712Z,52.08
2019-02-18T00:43:28.209Z,51.66
2019-02-18T00:45:57.115Z,51.95
2019-02-18T00:48:25.812Z,51.80
2019-02-18T00:50:54.539Z,51.97
2019-02-18T00:53:23.250Z,51.73
2019-02-18T00:55:51.959Z,52.03
2019-02-18T00:58:20.914Z,51.93
2019-02-18T01:00:49.874Z,52.07
2019-02-18T01:03:18.572Z,52.17
2019-02-18T01:05:47.058Z,52.71
2019-02-18T01:08:15.538Z,51.91
2019-02-18T01:10:44.018Z,52.15
2019-02-18T01:13:12.714Z,51.55
2019-02-18T01:15:41.206Z,51.32
2019-02-18T01:18:09.652Z,50.82
2019-02-18T01:20:38.138Z,50.49
2019-02-18T01:23:07.074Z,50.06
2019-02-18T01:25:35.540Z,49.93
2019-02-18T01:28:04.495Z,49.62
2019-02-18T01:30:32.955Z,49.71
2019-02-18T01:33:01.647Z,50.06
2019-02-18T01:35:30.139Z,49.75
2019-02-18T01:37:58.825Z,50.14
2019-02-18T01:40:27.355Z,50.40
2019-02-18T01:42:55.809Z,50.40
2019-02-18T01:45:24.263Z,50.34
2019-02-18T01:47:53.014Z,50.56
2019-02-18T01:50:21.721Z,50.59
2019-02-18T01:52:50.205Z,50.31
2019-02-18T01:55:19.131Z,50.37
2019-02-18T01:57:47.613Z,50.53
2019-02-18T02:00:16.380Z,50.65
2019-02-18T02:02:44.870Z,51.33
2019-02-18T02:05:14.638Z,51.31
2019-02-18T02:07:43.584Z,51.30
2019-02-18T02:10:13.174Z,51.12
2019-02-18T02:12:41.662Z,51.18
2019-02-18T02:15:16.414Z,51.32
2019-02-18T02:17:45.619Z,51.33
2019-02-18T02:20:14.113Z,50.53
2019-02-18T02:22:42.819Z,50.62
2019-02-18T02:25:11.267Z,51.11
2019-02-18T02:27:40.023Z,50.86
2019-02-18T02:30:08.653Z,50.67
2019-02-18T02:32:37.118Z,51.12
2019-02-18T02:35:05.583Z,51.27
2019-02-18T02:37:34.279Z,51.40
2019-02-18T02:40:02.966Z,51.48
2019-02-18T02:42:31.423Z,51.34
2019-02-18T02:45:02.606Z,51.35
2019-02-18T02:47:31.354Z,51.39
2019-02-18T02:49:59.811Z,51.33
2019-02-18T02:52:28.534Z,51.52
2019-02-18T02:54:57.240Z,51.49
2019-02-18T02:57:26.012Z,52.16
2019-02-18T02:59:54.469Z,51.68
2019-02-18T03:02:23.633Z,51.85
2019-02-18T03:04:52.587Z,52.29
2019-02-18T03:07:21.077Z,52.12
2019-02-18T03:09:49.518Z,51.89
2019-02-18T03:12:18.216Z,52.14
2019-02-18T03:14:46.670Z,51.56
2019-02-18T03:17:15.150Z,51.57
2019-02-18T03:19:44.098Z,51.98
2019-02-18T03:22:12.802Z,52.87
2019-02-18T03:25:19.340Z,52.99
2019-02-18T03:27:48.502Z,52.84
2019-02-18T03:30:49.512Z,53.46
2019-02-18T03:33:21.687Z,53.44
2019-02-18T03:35:50.126Z,53.80
2019-02-18T03:38:18.844Z,53.61
2019-02-18T03:40:47.516Z,54.04
2019-02-18T03:43:16.226Z,54.00
2019-02-18T03:45:45.165Z,54.03
2019-02-18T03:48:14.424Z,54.62
2019-02-18T03:50:43.132Z,54.55
2019-02-18T03:53:11.828Z,53.63
2019-02-18T03:55:40.269Z,53.95
2019-02-18T03:58:08.985Z,54.22
2019-02-18T04:00:37.701Z,54.84
2019-02-18T04:03:06.415Z,54.98
2019-02-18T04:05:35.605Z,55.63
2019-02-18T04:08:04.085Z,55.90
2019-02-18T04:10:34.885Z,56.24
2019-02-18T04:13:03.937Z,56.29
2019-02-18T04:15:32.951Z,56.98
2019-02-18T04:18:01.402Z,57.11
2019-02-18T04:20:30.119Z,56.93
2019-02-18T04:22:58.601Z,56.96
2019-02-18T04:25:27.297Z,57.24
2019-02-18T04:27:58.724Z,57.34
2019-02-18T04:30:27.177Z,57.47
2019-02-18T04:32:55.692Z,57.92
2019-02-18T04:35:24.113Z,57.96
2019-02-18T04:37:54.856Z,58.45
2019-02-18T04:40:23.798Z,58.31
2019-02-18T04:42:52.244Z,58.64
2019-02-18T04:45:20.932Z,58.83
2019-02-18T04:47:49.404Z,58.73
2019-02-18T04:50:17.840Z,58.96
2019-02-18T04:52:46.566Z,58.83
2019-02-18T04:55:15.011Z,59.16
2019-02-18T04:57:43.711Z,59.20
2019-02-18T05:00:12.407Z,59.29
2019-02-18T05:02:41.158Z,59.30
2019-02-18T05:05:09.902Z,59.22
2019-02-18T05:07:38.369Z,59.19
2019-02-18T05:10:08.103Z,59.51
2019-02-18T05:12:37.060Z,59.10
2019-02-18T05:15:05.610Z,59.07
2019-02-18T05:17:34.397Z,59.19
2019-02-18T05:20:02.876Z,59.19
2019-02-18T05:22:31.582Z,59.03
2019-02-18T05:25:00.545Z,59.17
2019-02-18T05:27:33.198Z,59.57
2019-02-18T05:29:59.894Z,59.78
2019-02-18T05:32:28.627Z,60.08
2019-02-18T05:34:57.587Z,60.60
2019-02-18T05:37:26.037Z,60.91
2019-02-18T05:39:55.480Z,61.44
2019-02-18T05:42:24.159Z,61.41
2019-02-18T05:44:52.585Z,62.07
2019-02-18T05:47:21.524Z,61.99
2019-02-18T05:49:49.987Z,62.04
2019-02-18T05:52:18.661Z,62.43
2019-02-18T05:54:47.377Z,62.22
2019-02-18T05:57:15.822Z,62.12
2019-02-18T05:59:44.529Z,62.22
2019-02-18T06:02:12.988Z,62.39
2019-02-18T06:04:41.701Z,62.77
2019-02-18T06:07:10.397Z,62.84
2019-02-18T06:09:38.862Z,62.85
2019-02-18T06:12:07.316Z,62.74
2019-02-18T06:14:35.782Z,62.63
2019-02-18T06:17:04.518Z,62.48
2019-02-18T06:19:32.988Z,62.22
2019-02-18T06:22:01.700Z,62.25
2019-02-18T06:24:30.409Z,62.58
2019-02-18T06:26:59.086Z,62.76
2019-02-18T06:29:27.782Z,62.32
2019-02-18T06:31:56.238Z,62.27
2019-02-18T06:34:24.948Z,62.57
2019-02-18T06:36:53.647Z,62.50
2019-02-18T06:39:22.133Z,62.75
2019-02-18T06:41:50.558Z,63.32
2019-02-18T06:44:22.025Z,63.32
2019-02-18T06:46:53.048Z,62.90
2019-02-18T06:49:24.558Z,62.77
2019-02-18T06:51:53.488Z,63.04
2019-02-18T06:54:22.449Z,63.31
2019-02-18T06:57:22.232Z,63.95
2019-02-18T06:59:53.898Z,64.11
2019-02-18T07:02:26.875Z,63.91
2019-02-18T07:05:23.570Z,64.03
2019-02-18T07:08:14.352Z,64.38
2019-02-18T07:11:07.908Z,64.62
2019-02-18T07:13:36.625Z,64.29
2019-02-18T07:16:05.094Z,64.15
2019-02-18T07:18:33.989Z,64.00
2019-02-18T07:21:02.479Z,63.76
2019-02-18T07:23:31.002Z,63.76
2019-02-18T07:25:59.716Z,63.85
2019-02-18T07:28:28.416Z,63.68
2019-02-18T07:30:57.191Z,63.72
2019-02-18T07:33:25.634Z,63.72
2019-02-18T07:35:54.421Z,63.42
2019-02-18T07:38:23.143Z,63.48
2019-02-18T07:40:51.851Z,63.34
2019-02-18T07:43:22.983Z,63.31
2019-02-18T07:45:51.030Z,62.94
2019-02-18T07:48:19.555Z,63.00
2019-02-18T07:50:48.037Z,63.02
2019-02-18T07:53:19.651Z,62.90
2019-02-18T07:55:48.364Z,62.82
2019-02-18T07:58:17.299Z,62.30
2019-02-18T08:00:45.808Z,62.46
2019-02-18T08:03:14.783Z,62.47
2019-02-18T08:05:43.771Z,62.69
2019-02-18T08:08:12.756Z,62.22
2019-02-18T08:10:41.253Z,61.38
2019-02-18T08:13:09.696Z,61.42
2019-02-18T08:15:38.168Z,61.51
2019-02-18T08:18:06.877Z,61.78
2019-02-18T08:20:35.620Z,61.33
2019-02-18T08:23:04.065Z,61.52
2019-02-18T08:25:32.789Z,61.80
2019-02-18T08:28:01.493Z,61.33
2019-02-18T08:30:30.257Z,60.42
2019-02-18T08:32:58.736Z,60.35
2019-02-18T08:35:27.551Z,59.67
2019-02-18T08:37:56.005Z,59.88
2019-02-18T08:40:25.313Z,60.69
2019-02-18T08:42:54.110Z,60.78
2019-02-18T08:45:22.810Z,59.62
2019-02-18T08:47:51.500Z,59.41
2019-02-18T08:50:20.263Z,59.07
2019-02-18T08:52:48.815Z,59.37
2019-02-18T08:55:17.324Z,58.43
2019-02-18T08:57:45.916Z,58.46
2019-02-18T09:00:16.000Z,56.81
2019-02-18T09:02:44.715Z,57.64
2019-02-18T09:05:13.327Z,56.33
2019-02-18T09:07:42.158Z,56.27
2019-02-18T09:10:11.204Z,55.68
2019-02-18T09:12:40.007Z,55.13
2019-02-18T09:15:09.300Z,56.22
2019-02-18T09:17:38.002Z,56.38
2019-02-18T09:20:07.415Z,55.67
2019-02-18T09:22:54.397Z,55.68
2019-02-18T09:25:31.864Z,55.20
2019-02-18T09:28:00.346Z,55.44
2019-02-18T09:30:31.529Z,54.94
2019-02-18T09:33:00.497Z,54.64
2019-02-18T09:35:28.982Z,54.52
2019-02-18T09:37:57.482Z,55.17
2019-02-18T09:40:25.946Z,54.39
2019-02-18T09:42:54.417Z,54.64
2019-02-18T09:45:23.133Z,54.61
2019-02-18T09:47:54.098Z,54.55
2019-02-18T09:50:22.129Z,54.40
2019-02-18T09:52:50.855Z,53.91
2019-02-18T09:55:19.333Z,53.39
2019-02-18T09:57:48.041Z,53.48
2019-02-18T10:00:16.498Z,53.89
2019-02-18T10:02:44.972Z,52.40
2019-02-18T10:05:13.449Z,52.77
2019-02-18T10:07:41.937Z,52.05
2019-02-18T10:10:10.700Z,51.71
2019-02-18T10:12:39.198Z,51.47
2019-02-18T10:15:07.948Z,52.45
2019-02-18T10:17:37.022Z,52.50
2019-02-18T10:20:05.735Z,51.16
2019-02-18T10:22:34.314Z,51.54
2019-02-18T10:25:02.836Z,50.84
2019-02-18T10:27:31.596Z,50.71
2019-02-18T10:30:04.793Z,50.33
2019-02-18T10:32:33.280Z,50.87
2019-02-18T10:35:01.821Z,50.42
2019-02-18T10:37:30.300Z,51.34
2019-02-18T10:39:58.773Z,51.56
2019-02-18T10:42:27.258Z,49.70
2019-02-18T10:44:56.198Z,49.70
2019-02-18T10:47:24.741Z,49.70
2019-02-18T10:49:53.757Z,49.35
2019-02-18T10:52:22.671Z,49.35
2019-02-18T10:54:51.448Z,48.54
2019-02-18T10:57:19.953Z,48.95
2019-02-18T10:59:48.401Z,49.34
2019-02-18T11:02:17.182Z,49.01
2019-02-18T11:04:45.639Z,47.90
2019-02-18T11:07:14.429Z,48.26
2019-02-18T11:09:43.109Z,46.88
2019-02-18T11:12:11.883Z,46.98
2019-02-18T11:14:40.663Z,45.70
2019-02-18T11:17:09.438Z,45.12
2019-02-18T11:19:38.272Z,46.34
2019-02-18T11:22:06.804Z,44.60
2019-02-18T11:24:35.818Z,45.45
2019-02-18T11:27:04.636Z,45.34
2019-02-18T11:29:33.333Z,44.14
2019-02-18T11:32:01.810Z,45.09
2019-02-18T11:34:30.284Z,44.67
2019-02-18T11:36:59.054Z,44.94
2019-02-18T11:39:27.801Z,45.68
2019-02-18T11:41:56.263Z,43.99
2019-02-18T11:44:24.987Z,42.92
2019-02-18T11:46:53.444Z,42.44
2019-02-18T11:49:22.175Z,42.68
2019-02-18T11:51:50.645Z,43.59
2019-02-18T11:54:19.748Z,41.96
2019-02-18T11:56:48.214Z,41.97
2019-02-18T11:59:24.062Z,42.13
2019-02-18T12:01:47.141Z,41.59
2019-02-18T12:04:15.873Z,43.09
2019-02-18T12:06:44.635Z,42.43
2019-02-18T12:09:13.629Z,40.05
2019-02-18T12:11:42.096Z,41.01
2019-02-18T12:14:10.607Z,42.37
2019-02-18T12:16:39.317Z,41.29
2019-02-18T12:19:07.794Z,41.40
2019-02-18T12:21:36.565Z,42.47
2019-02-18T12:24:05.293Z,42.35
2019-02-18T12:26:34.143Z,40.85
2019-02-18T12:29:02.940Z,40.67
2019-02-18T12:31:31.675Z,41.06
2019-02-18T12:34:00.439Z,41.22
2019-02-18T12:36:28.915Z,39.51
2019-02-18T12:38:58.123Z,39.54
2019-02-18T12:41:27.505Z,39.71
2019-02-18T12:43:55.994Z,38.99
2019-02-18T12:46:24.731Z,39.20
2019-02-18T12:48:53.228Z,39.31
2019-02-18T12:51:21.928Z,39.62
2019-02-18T12:53:50.657Z,37.52
2019-02-18T12:56:19.383Z,37.33
2019-02-18T12:58:54.566Z,39.59
2019-02-18T13:01:18.758Z,37.00
2019-02-18T13:03:47.487Z,37.14
2019-02-18T13:06:15.975Z,37.04
2019-02-18T13:08:44.928Z,37.03
2019-02-18T13:11:13.424Z,39.15
2019-02-18T13:13:42.144Z,36.92
2019-02-18T13:16:11.247Z,38.90
2019-02-18T13:18:40.002Z,36.50
2019-02-18T13:21:08.711Z,36.12
2019-02-18T13:23:37.422Z,36.08
2019-02-18T13:26:05.909Z,36.67
2019-02-18T13:28:34.397Z,36.86
2019-02-18T13:31:02.891Z,38.29
2019-02-18T13:33:31.734Z,36.74
2019-02-18T13:36:03.039Z,36.39
2019-02-18T13:38:31.745Z,36.43
2019-02-18T13:41:00.509Z,36.45
2019-02-18T13:43:29.237Z,36.91
2019-02-18T13:45:57.698Z,35.79
2019-02-18T13:48:26.512Z,35.97
2019-02-18T13:50:55.215Z,37.43
2019-02-18T13:53:23.974Z,35.71
2019-02-18T13:55:52.436Z,35.26
2019-02-18T13:58:20.950Z,35.42
2019-02-18T14:00:49.415Z,36.84
2019-02-18T14:03:18.153Z,37.57
2019-02-18T14:05:46.879Z,38.13
2019-02-18T14:08:15.359Z,37.21
2019-02-18T14:10:44.107Z,36.22
2019-02-18T14:13:12.569Z,37.55
2019-02-18T14:15:41.344Z,37.41
2019-02-18T14:18:09.835Z,37.35
2019-02-18T14:20:38.932Z,37.72
2019-02-18T14:23:07.381Z,37.21
2019-02-18T14:25:36.097Z,36.72
2019-02-18T14:28:04.579Z,37.60
2019-02-18T14:30:33.091Z,40.00
2019-02-18T14:33:03.821Z,37.05
2019-02-18T14:35:32.778Z,38.25
2019-02-18T14:38:01.484Z,37.91
2019-02-18T14:40:29.950Z,38.34
2019-02-18T14:42:58.655Z,38.20
2019-02-18T14:45:27.358Z,38.59
2019-02-18T14:47:56.067Z,39.07
2019-02-18T14:50:24.786Z,38.32
2019-02-18T14:52:53.311Z,38.35
2019-02-18T14:55:21.787Z,39.14
2019-02-18T14:57:50.508Z,38.82
2019-02-18T15:00:23.607Z,39.47
2019-02-18T15:02:57.117Z,38.45
2019-02-18T15:05:26.348Z,39.10
2019-02-18T15:07:54.772Z,39.26
2019-02-18T15:10:23.520Z,39.10
2019-02-18T15:12:51.953Z,40.09
2019-02-18T15:15:20.565Z,39.89
2019-02-18T15:17:49.283Z,39.93
2019-02-18T15:20:18.153Z,39.80
2019-02-18T15:22:46.856Z,39.48
2019-02-18T15:25:15.306Z,40.56
2019-02-18T15:27:44.012Z,40.81
2019-02-18T15:30:13.625Z,39.85
2019-02-18T15:32:42.412Z,40.08
2019-02-18T15:35:11.998Z,40.45
2019-02-18T15:37:40.711Z,41.07
2019-02-18T15:40:10.211Z,40.68
2019-02-18T15:42:42.205Z,40.71
2019-02-18T15:45:08.872Z,40.63
2019-02-18T15:47:37.769Z,41.36
2019-02-18T15:50:06.627Z,41.90
2019-02-18T15:52:35.649Z,41.88
2019-02-18T15:55:04.190Z,40.87
2019-02-18T15:57:32.904Z,40.92
2019-02-18T16:00:01.377Z,40.83
2019-02-18T16:02:37.794Z,40.99
2019-02-18T16:05:06.791Z,40.42
2019-02-18T16:07:35.499Z,41.33
2019-02-18T16:10:04.094Z,40.92
2019-02-18T16:12:32.637Z,40.78
2019-02-18T16:15:01.426Z,41.93
2019-02-18T16:17:30.113Z,42.14
2019-02-18T16:19:58.915Z,42.85
2019-02-18T16:22:27.704Z,42.61
2019-02-18T16:24:56.481Z,43.41
2019-02-18T16:27:25.197Z,43.62
2019-02-18T16:29:53.652Z,43.25
2019-02-18T16:32:22.191Z,43.49
2019-02-18T16:34:50.693Z,43.49
2019-02-18T16:37:19.435Z,44.23
2019-02-18T16:39:48.189Z,43.97
2019-02-18T16:42:16.972Z,44.63
2019-02-18T16:44:45.675Z,44.36
2019-02-18T16:47:14.171Z,45.21
2019-02-18T16:49:42.935Z,44.77
2019-02-18T16:52:12.565Z,45.47
2019-02-18T16:54:41.629Z,46.02
2019-02-18T16:57:10.720Z,45.99
2019-02-18T16:59:39.459Z,46.71
2019-02-18T17:02:07.921Z,46.85
2019-02-18T17:04:36.654Z,46.55
2019-02-18T17:07:05.380Z,47.04
2019-02-18T17:09:33.848Z,47.45
2019-02-18T17:12:02.943Z,47.23
2019-02-18T17:14:31.640Z,47.39
2019-02-18T17:17:00.411Z,48.08
2019-02-18T17:19:28.881Z,47.89
2019-02-18T17:21:57.828Z,47.94
2019-02-18T17:24:26.520Z,48.82
2019-02-18T17:26:55.368Z,49.17
2019-02-18T17:29:24.347Z,49.28
2019-02-18T17:31:52.924Z,48.95
2019-02-18T17:34:21.394Z,49.20
2019-02-18T17:36:50.104Z,49.09
2019-02-18T17:39:18.731Z,49.24
2019-02-18T17:41:47.206Z,48.85
2019-02-18T17:44:20.201Z,48.55
2019-02-18T17:46:45.841Z,48.86
2019-02-18T17:49:14.303Z,49.07
2019-02-18T17:51:42.788Z,47.90
2019-02-18T17:54:11.645Z,47.25
2019-02-18T17:56:40.108Z,47.00
2019-02-18T17:59:08.860Z,46.49
2019-02-18T18:01:37.575Z,45.97
2019-02-18T18:04:06.057Z,45.10
2019-02-18T18:06:34.839Z,44.90
2019-02-18T18:09:04.307Z,44.71
2019-02-18T18:11:32.853Z,45.60
2019-02-18T18:14:01.583Z,45.27
2019-02-18T18:16:30.308Z,45.44
2019-02-18T18:18:58.784Z,46.17
2019-02-18T18:21:27.738Z,46.44
2019-02-18T18:23:56.722Z,46.45
2019-02-18T18:26:25.578Z,46.69
2019-02-18T18:28:54.115Z,47.20
2019-02-18T18:31:22.579Z,47.17
2019-02-18T18:33:51.521Z,47.88
2019-02-18T18:36:20.238Z,48.21
2019-02-18T18:38:51.745Z,48.58
2019-02-18T18:41:20.364Z,48.05
2019-02-18T18:43:48.834Z,48.71
2019-02-18T18:46:17.553Z,48.80
2019-02-18T18:48:46.013Z,49.50
2019-02-18T18:51:14.474Z,48.94
2019-02-18T18:53:43.196Z,49.93
2019-02-18T18:56:12.202Z,49.47
2019-02-18T18:58:40.936Z,49.50
2019-02-18T19:01:10.416Z,49.45
2019-02-18T19:03:41.571Z,49.75
2019-02-18T19:06:10.289Z,50.10
2019-02-18T19:08:39.239Z,49.98
2019-02-18T19:11:07.714Z,50.08
2019-02-18T19:13:42.152Z,50.10
2019-02-18T19:16:09.761Z,50.33
2019-02-18T19:18:38.285Z,50.40
2019-02-18T19:21:07.034Z,50.78
2019-02-18T19:26:23.701Z,51.44
2019-02-18T19:28:52.193Z,51.39
2019-02-18T19:31:21.036Z,51.47
2019-02-18T19:33:51.313Z,51.97
2019-02-18T19:36:19.673Z,51.99
2019-02-18T19:38:48.186Z,52.05
2019-02-18T19:41:16.911Z,52.40
2019-02-18T19:43:50.400Z,52.58
2019-02-18T19:46:15.676Z,52.52
2019-02-18T19:48:44.360Z,52.31
2019-02-18T19:51:12.845Z,52.53
2019-02-18T19:53:41.597Z,52.59
2019-02-18T19:56:10.000Z,52.48
2019-02-18T19:58:38.701Z,52.49
2019-02-18T20:01:07.188Z,52.94
2019-02-18T20:03:35.890Z,52.93
2019-02-18T20:06:04.342Z,53.45
2019-02-18T20:08:33.005Z,53.58
2019-02-18T20:11:01.729Z,53.71
2019-02-18T20:13:30.462Z,53.90
2019-02-18T20:15:59.284Z,53.88
2019-02-18T20:18:28.218Z,53.97
2019-02-18T20:20:57.037Z,53.89
2019-02-18T20:23:25.487Z,53.92
2019-02-18T20:25:54.217Z,53.70
2019-02-18T20:28:22.980Z,53.55
2019-02-18T20:30:51.462Z,53.51
2019-02-18T20:33:20.155Z,53.52
2019-02-18T20:35:49.062Z,53.76
2019-02-18T20:38:17.775Z,54.02
2019-02-18T20:40:46.973Z,54.27
2019-02-18T20:43:15.427Z,54.14
2019-02-18T20:45:44.178Z,54.56
2019-02-18T20:48:12.641Z,54.62
2019-02-18T20:50:43.254Z,55.12
2019-02-18T20:53:15.822Z,55.64
2019-02-18T20:55:44.345Z,55.46
2019-02-18T20:58:12.808Z,55.37
2019-02-18T21:00:41.523Z,55.45
2019-02-18T21:03:10.632Z,55.35
2019-02-18T21:05:39.674Z,55.72
2019-02-18T21:08:08.363Z,55.68
2019-02-18T21:10:36.843Z,55.87
2019-02-18T21:13:05.567Z,56.04
2019-02-18T21:15:34.499Z,56.09
2019-02-18T21:18:03.390Z,56.03
2019-02-18T21:20:32.206Z,56.20
2019-02-18T21:23:00.716Z,56.30
2019-02-18T21:25:29.200Z,56.41
2019-02-18T21:27:57.956Z,56.53
2019-02-18T21:30:28.876Z,56.51
2019-02-18T21:32:57.581Z,56.46
2019-02-18T21:35:26.226Z,56.62
2019-02-18T21:37:54.669Z,56.65
2019-02-18T21:40:23.384Z,56.52
2019-02-18T21:42:51.867Z,56.11
2019-02-18T21:45:20.339Z,56.26
2019-02-18T21:47:48.808Z,56.35
2019-02-18T21:50:17.300Z,56.39
2019-02-18T21:52:46.237Z,56.99
2019-02-18T21:55:14.958Z,56.50
2019-02-18T21:57:43.684Z,56.24
2019-02-18T22:00:16.645Z,55.97
2019-02-18T22:02:45.333Z,56.17
2019-02-18T22:05:14.407Z,56.27
2019-02-18T22:07:42.868Z,56.55
2019-02-18T22:10:11.344Z,56.92
2019-02-18T22:12:40.040Z,56.85
2019-02-18T22:15:08.844Z,56.87
2019-02-18T22:17:37.618Z,56.53
2019-02-18T22:20:07.088Z,56.28
2019-02-18T22:22:36.142Z,56.13
2019-02-18T22:25:05.153Z,56.25
2019-02-18T22:27:33.864Z,56.08
2019-02-18T22:30:02.308Z,55.77
2019-02-18T22:32:31.047Z,55.54
2019-02-18T22:35:02.849Z,55.38
2019-02-18T22:37:31.747Z,55.15
2019-02-18T22:40:00.473Z,54.13
2019-02-18T22:42:29.500Z,53.51
2019-02-18T22:44:57.948Z,53.10
2019-02-18T22:47:27.099Z,52.19
2019-02-18T22:49:55.639Z,51.89
2019-02-18T22:52:24.068Z,51.67
2019-02-18T22:54:52.817Z,51.91
2019-02-18T22:57:21.625Z,51.65
2019-02-18T22:59:51.645Z,51.12
2019-02-18T23:02:20.295Z,51.44
2019-02-18T23:04:49.437Z,50.92
2019-02-18T23:07:17.961Z,51.04
2019-02-18T23:09:46.463Z,50.71
2019-02-18T23:12:18.052Z,51.23
2019-02-18T23:14:50.468Z,50.86
2019-02-18T23:17:16.953Z,51.29
2019-02-18T23:19:45.436Z,51.23
2019-02-18T23:22:14.226Z,51.49
2019-02-18T23:24:43.013Z,51.34
2019-02-18T23:27:11.999Z,51.52
2019-02-18T23:29:40.750Z,51.96
2019-02-18T23:32:09.225Z,51.71
2019-02-18T23:34:37.959Z,52.17
2019-02-18T23:37:06.410Z,52.18
2019-02-18T23:39:35.067Z,52.60
2019-02-18T23:42:04.155Z,52.68
2019-02-18T23:44:32.829Z,52.54
2019-02-18T23:47:01.526Z,52.01
2019-02-18T23:49:30.188Z,52.64
2019-02-18T23:51:59.469Z,52.52
2019-02-18T23:54:28.137Z,52.05
2019-02-18T23:56:57.098Z,52.36
2019-02-18T23:59:26.135Z,52.36
